ADDS METAR Data INFO
IDs: Format: Raw Decoded Include TAF

Data at: 0500 UTC 23 May 2017

KRPH 230435Z AUTO 00000KT 10SM SCT070 18/18 A2991 RMK AO2 T01760176
KRPH 230415Z AUTO 00000KT 10SM BKN070 BKN085 18/18 A2991 RMK AO2 T01810181
KRPH 230355Z AUTO 00000KT 10SM BKN070 19/19 A2993 RMK AO2 T01850185
KRPH 230335Z AUTO 00000KT 10SM SCT070 19/19 A2992 RMK AO2 T01850185
KRPH 230315Z AUTO 00000KT 10SM CLR 19/17 A2993 RMK AO2 T01920169
KRPH 230255Z AUTO 00000KT 10SM CLR 20/17 A2991 RMK AO2 T01960168
KRPH 230235Z AUTO 11003KT 10SM CLR 20/17 A2989 RMK AO2 T01980170
KRPH 230215Z AUTO 00000KT 10SM CLR 20/17 A2990 RMK AO2 T01970172
KRPH 230155Z AUTO 00000KT 10SM CLR 21/17 A2990 RMK AO2 T02050170
KRPH 230135Z AUTO 00000KT 10SM SCT080 SCT120 21/17 A2990 RMK AO2 T02100170
KRPH 230115Z AUTO 11003KT 10SM CLR 21/17 A2989 RMK AO2 T02130170
KRPH 230055Z AUTO 09003KT 10SM SCT080 22/17 A2989 RMK AO2 T02160170
KRPH 230035Z AUTO 00000KT 10SM SCT080 22/17 A2990 RMK AO2 T02210168
KRPH 230015Z AUTO 10003KT 10SM BKN041 23/17 A2989 RMK AO2 T02250166
KRPH 222355Z AUTO 10004KT 10SM OVC038 23/17 A2990 RMK AO2 T02300170 10250 20223
KRPH 222335Z AUTO 00000KT 10SM OVC035 23/17 A2992 RMK AO2 T02330169
KRPH 222315Z AUTO 00000KT 10SM SCT033 BKN070 OVC075 24/17 A2991 RMK AO2 T02390166
KRPH 222255Z AUTO 11003KT 10SM OVC070 24/17 A2992 RMK AO2 T02410167
KRPH 222235Z AUTO 11004KT 10SM SCT033 SCT044 OVC070 24/17 A2992 RMK AO2 T02380166
KRPH 222215Z AUTO 11004KT 10SM SCT033 OVC046 24/17 A2993 RMK AO2 T02380167
KRPH 222155Z AUTO 11003KT 10SM OVC046 24/17 A2993 RMK AO2 T02390165
KRPH 222135Z AUTO 09004KT 10SM OVC046 24/17 A2994 RMK AO2 T02410166
KRPH 222115Z AUTO 12004KT 10SM SCT031 BKN043 OVC049 25/17 A2995 RMK AO2 T02490168
KRPH 222055Z AUTO 11003KT 10SM SCT031 OVC038 24/17 A2996 RMK AO2 T02440170
KRPH 222035Z AUTO 00000KT 10SM OVC038 24/17 A2996 RMK AO2 T02380168
KRPH 222015Z AUTO 12004KT 10SM BKN031 OVC038 24/17 A2997 RMK AO2 T02350170
KRPH 221955Z AUTO 09004KT 10SM BKN029 BKN034 OVC040 24/17 A2998 RMK AO2 T02350171
KRPH 221935Z AUTO 07005KT 10SM BKN027 OVC033 23/17 A2998 RMK AO2 T02330170
KRPH 221915Z AUTO 03005KT 10SM BKN027 OVC033 24/17 A2999 RMK AO2 T02380168
KRPH 221855Z AUTO 08004KT 10SM OVC027 23/17 A3000 RMK AO2 T02330167
KRPH 221835Z AUTO 00000KT 10SM BKN022 BKN028 OVC050 23/17 A3000 RMK AO2 T02300166
KRPH 221815Z AUTO 08004KT 10SM SCT020 OVC050 23/16 A3001 RMK AO2 T02280164
KRPH 221755Z AUTO 00000KT 10SM SCT018 OVC050 22/16 A3003 RMK AO2 T02210161 10221 20141
KRPH 221735Z AUTO 11003KT 10SM SCT016 SCT050 21/16 A3003 RMK AO2 T02130161
KRPH 221715Z AUTO 08005KT 10SM BKN016 21/16 A3003 RMK AO2 T02140161
KRPH 221655Z AUTO 11004KT 10SM OVC016 21/15 A3006 RMK AO2 T02060154
KRPH 221635Z AUTO 00000KT 10SM OVC016 20/15 A3006 RMK AO2 T02000152
KRPH 221615Z AUTO 00000KT 10SM OVC016 19/15 A3008 RMK AO2 T01900150
KRPH 221555Z AUTO 00000KT OVC016 19/15 A3010 RMK AO2 T01860148
KRPH 221535Z AUTO 00000KT 10SM OVC016 18/15 A3011 RMK AO2 T01840145
KRPH 221515Z AUTO 00000KT 10SM OVC016 18/15 A3011 RMK AO2 T01820149
KRPH 221455Z AUTO 00000KT 10SM OVC016 19/15 A3011 RMK AO2 T01850149
KRPH 221435Z AUTO 16004KT 10SM BKN014 19/15 A3010 RMK AO2 T01850150
KRPH 221415Z AUTO 15003KT 10SM CLR 18/15 A3009 RMK AO2 T01840150
KRPH 221355Z AUTO 13004KT 10SM SCT012 17/17 A3009 RMK AO2 T01690165
KRPH 221335Z AUTO 00000KT 10SM BKN012 18/16 A3009 RMK AO2 T01750164
KRPH 221315Z AUTO 00000KT 10SM CLR 16/16 A3009 RMK AO2 T01610161
KRPH 221255Z AUTO 00000KT 10SM CLR 16/16 A3009 RMK AO2 T01570157
KRPH 221235Z AUTO 00000KT 10SM CLR 15/15 A3008 RMK AO2 T01520152
KRPH 221215Z AUTO 00000KT 10SM SCT110 15/ A3007 RMK AO2 T0145
KRPH 221155Z AUTO 00000KT 10SM BKN110 14/ A3007 RMK AO2 T0141 10166 20141
KRPH 221135Z AUTO 00000KT 7SM CLR 14/ A3006 RMK AO2 T0141
KRPH 221115Z AUTO 00000KT 10SM CLR 15/ A3007 RMK AO2 T0145
KRPH 221055Z AUTO 00000KT 10SM CLR 15/ A3007 RMK AO2 T0147
KRPH 221035Z AUTO 00000KT 10SM SCT110 15/ A3008 RMK AO2 T0152
KRPH 221015Z AUTO 00000KT 10SM BKN110 16/ A3008 RMK AO2 T0155
KRPH 220955Z AUTO 00000KT 10SM OVC100 16/ A3009 RMK AO2 T0156
KRPH 220935Z AUTO 00000KT 10SM BKN110 16/ A3009 RMK AO2 T0156
KRPH 220915Z AUTO 00000KT 10SM SCT110 16/ A3009 RMK AO2 T0160
KRPH 220855Z AUTO 00000KT 10SM -DZ OVC110 16/16 A3010 RMK AO2 P0001 60001 T01600160
KRPH 220835Z AUTO 00000KT 10SM RA OVC100 16/16 A3010 RMK AO2 P0001 T01610161
KRPH 220815Z AUTO 00000KT 10SM OVC100 16/16 A3011 RMK AO2 T01620162
KRPH 220755Z AUTO 00000KT 10SM OVC090 16/16 A3012 RMK AO2 T01640164
KRPH 220735Z AUTO 12003KT 10SM OVC090 16/16 A3011 RMK AO2 T01620162
KRPH 220715Z AUTO 11007KT 10SM OVC100 16/16 A3010 RMK AO2 T01610161
KRPH 220655Z AUTO 09006KT 10SM SCT070 OVC090 16/16 A3011 RMK AO2 T01600160
KRPH 220635Z AUTO 06005KT 10SM SCT060 OVC080 17/17 A3011 RMK AO2 T01650165
KRPH 220615Z AUTO 09003KT 10SM -RA BKN060 OVC080 17/17 A3012 RMK AO2 T01650165
KRPH 220555Z AUTO 08003KT 10SM -RA OVC060 17/17 A3012 RMK AO2 P0008 60008 T01650165 10218 20165 402600125
KRPH 220535Z AUTO 13004KT 10SM RA SCT031 BKN060 OVC080 17/15 A3012 RMK AO2 P0008 T01700150
KRPH 220515Z AUTO 00000KT 4SM +RA SCT031 SCT041 OVC060 18/15 A3011 RMK AO2 P0006 T01780146
KRPH 220455Z AUTO 00000KT 10SM BKN060 BKN100 BKN120 19/13 A3011 RMK AO2 T01890130
KRPH 220435Z AUTO 00000KT 10SM SCT075 SCT100 SCT120 19/13 A3011 RMK AO2 T01900125
KRPH 220415Z AUTO 10003KT 10SM BKN075 BKN120 19/13 A3010 RMK AO2 T01860131
KRPH 220355Z AUTO 09003KT 10SM SCT060 BKN075 BKN120 19/13 A3011 RMK AO2 T01920126
KRPH 220335Z AUTO 03003KT 10SM SCT060 BKN075 BKN120 19/13 A3011 RMK AO2 T01860133
KRPH 220315Z AUTO 00000KT 10SM SCT060 BKN100 BKN120 19/12 A3010 RMK AO2 T01940124
KRPH 220255Z AUTO 00000KT 10SM SCT060 OVC100 19/13 A3010 RMK AO2 T01910126
KRPH 220235Z AUTO 00000KT 10SM BKN060 BKN120 19/13 A3009 RMK AO2 T01910130
KRPH 220215Z AUTO 00000KT 10SM SCT060 SCT120 19/14 A3009 RMK AO2 T01850135
KRPH 220155Z AUTO 00000KT 10SM SCT120 19/13 A3009 RMK AO2 T01850130
KRPH 220135Z AUTO 00000KT 10SM CLR 19/13 A3009 RMK AO2 T01930131
KRPH 220115Z AUTO 00000KT 10SM SCT100 20/12 A3009 RMK AO2 T02000117
KRPH 220055Z AUTO 00000KT 10SM SCT100 21/11 A3009 RMK AO2 T02060114
KRPH 220035Z AUTO 09003KT 10SM CLR 21/12 A3008 RMK AO2 T02100115
KRPH 220015Z AUTO 10003KT 10SM CLR 22/12 A3008 RMK AO2 T02150115
KRPH 212355Z AUTO 09004KT 10SM CLR 22/11 A3008 RMK AO2 T02190112 10260 20219
KRPH 212335Z AUTO 09003KT 10SM CLR 22/11 A3009 RMK AO2 T02220114
KRPH 212315Z AUTO 08004KT 10SM CLR 23/11 A3009 RMK AO2 T02270105
KRPH 212255Z AUTO 07005KT 10SM CLR 23/10 A3009 RMK AO2 T02310102
KRPH 212235Z AUTO 07005KT 10SM CLR 24/11 A3010 RMK AO2 T02350106
KRPH 212215Z AUTO 07003KT 10SM CLR 24/10 A3010 RMK AO2 T02400103
KRPH 212155Z AUTO 06007KT 10SM SCT120 24/09 A3010 RMK AO2 T02410093
KRPH 212135Z AUTO 08006KT 10SM BKN110 25/10 A3010 RMK AO2 T02450095
KRPH 212115Z AUTO 08006KT 10SM OVC110 25/09 A3011 RMK AO2 T02460092
KRPH 212055Z AUTO 10008G14KT 10SM BKN110 25/09 A3010 RMK AO2 T02460094
KRPH 212035Z AUTO 10005KT 10SM SCT120 25/09 A3011 RMK AO2 T02500092
KRPH 212015Z AUTO 08006KT 10SM CLR 26/10 A3011 RMK AO2 T02550097
KRPH 211955Z AUTO 12005KT 10SM SCT110 26/11 A3011 RMK AO2 T02560105
KRPH 211935Z AUTO 12006KT 10SM BKN110 26/10 A3012 RMK AO2 T02570104
KRPH 211915Z AUTO 08007KT 10SM SCT110 26/10 A3012 RMK AO2 T02550097
KRPH 211855Z AUTO 08008KT 10SM CLR 25/10 A3010 RMK AO2 T02540101
KRPH 211835Z AUTO 08006KT 10SM SCT110 25/10 A3013 RMK AO2 T02500097 PWINO
KRPH 211815Z AUTO 06004KT 10SM SCT110 25/10 A3015 RMK AO2 T02520096
KRPH 211755Z AUTO 10004KT 10SM BKN110 24/09 A3016 RMK AO2 T02360092 10246 20142
KRPH 211735Z AUTO 09005KT 10SM SCT110 24/09 A3016 RMK AO2 T02400090
KRPH 211715Z AUTO 12008KT 090V150 10SM SCT120 24/09 A3018 RMK AO2 T02350087


Page loaded:  05:00 UTC  |   10:00 PM Pacific  |   11:00 PM Mountain  |   12:00 AM Central  |   01:00 AM Eastern

 

ADVISORIES

FORECASTS

FORECASTS

OBSERVATIONS

USER TOOLS

ABOUT US